sensor_id;sensor_type;location;lat;lon;timestamp;pressure;altitude;pressure_sealevel;temperature
67829;BMP280;54626;45.436;10.942;2022-12-04T00:01:19;100478.34;;;10.90
67829;BMP280;54626;45.436;10.942;2022-12-04T00:03:46;100475.91;;;10.86
67829;BMP280;54626;45.436;10.942;2022-12-04T00:06:15;100475.97;;;10.94
67829;BMP280;54626;45.436;10.942;2022-12-04T00:08:43;100462.34;;;10.96
67829;BMP280;54626;45.436;10.942;2022-12-04T00:11:11;100472.69;;;10.95
67829;BMP280;54626;45.436;10.942;2022-12-04T00:13:38;100467.56;;;10.99
67829;BMP280;54626;45.436;10.942;2022-12-04T00:16:06;100462.56;;;10.98
67829;BMP280;54626;45.436;10.942;2022-12-04T00:18:34;100454.66;;;11.02
67829;BMP280;54626;45.436;10.942;2022-12-04T00:21:04;100462.31;;;11.09
67829;BMP280;54626;45.436;10.942;2022-12-04T00:23:32;100456.09;;;10.95
67829;BMP280;54626;45.436;10.942;2022-12-04T00:26:00;100450.75;;;10.97
67829;BMP280;54626;45.436;10.942;2022-12-04T00:28:29;100451.88;;;11.02
67829;BMP280;54626;45.436;10.942;2022-12-04T00:30:55;100441.19;;;10.98
67829;BMP280;54626;45.436;10.942;2022-12-04T00:33:22;100428.47;;;11.03
67829;BMP280;54626;45.436;10.942;2022-12-04T00:35:55;100405.53;;;11.15
67829;BMP280;54626;45.436;10.942;2022-12-04T00:38:21;100402.00;;;11.15
67829;BMP280;54626;45.436;10.942;2022-12-04T00:40:48;100411.47;;;11.19
67829;BMP280;54626;45.436;10.942;2022-12-04T00:43:15;100405.03;;;11.24
67829;BMP280;54626;45.436;10.942;2022-12-04T00:45:42;100403.00;;;11.25
67829;BMP280;54626;45.436;10.942;2022-12-04T00:48:09;100403.59;;;11.31
67829;BMP280;54626;45.436;10.942;2022-12-04T00:50:39;100399.16;;;11.28
67829;BMP280;54626;45.436;10.942;2022-12-04T00:53:06;100396.59;;;11.30
67829;BMP280;54626;45.436;10.942;2022-12-04T00:55:32;100393.97;;;11.24
67829;BMP280;54626;45.436;10.942;2022-12-04T00:58:02;100386.97;;;11.23
67829;BMP280;54626;45.436;10.942;2022-12-04T01:00:33;100381.38;;;11.16
67829;BMP280;54626;45.436;10.942;2022-12-04T01:03:01;100380.75;;;11.10
67829;BMP280;54626;45.436;10.942;2022-12-04T01:05:27;100380.25;;;11.19
67829;BMP280;54626;45.436;10.942;2022-12-04T01:07:54;100387.63;;;11.16
67829;BMP280;54626;45.436;10.942;2022-12-04T01:10:21;100373.41;;;11.12
67829;BMP280;54626;45.436;10.942;2022-12-04T01:12:49;100381.72;;;11.12
67829;BMP280;54626;45.436;10.942;2022-12-04T01:15:18;100381.44;;;11.23
67829;BMP280;54626;45.436;10.942;2022-12-04T01:17:46;100364.84;;;11.31
67829;BMP280;54626;45.436;10.942;2022-12-04T01:20:18;100367.78;;;11.33
67829;BMP280;54626;45.436;10.942;2022-12-04T01:22:47;100367.66;;;11.38
67829;BMP280;54626;45.436;10.942;2022-12-04T01:25:13;100360.47;;;11.35
67829;BMP280;54626;45.436;10.942;2022-12-04T01:27:40;100357.69;;;11.35
67829;BMP280;54626;45.436;10.942;2022-12-04T01:30:06;100361.97;;;11.43
67829;BMP280;54626;45.436;10.942;2022-12-04T01:32:42;100351.25;;;11.40
67829;BMP280;54626;45.436;10.942;2022-12-04T01:35:08;100352.38;;;11.44
67829;BMP280;54626;45.436;10.942;2022-12-04T01:37:35;100339.63;;;11.42
67829;BMP280;54626;45.436;10.942;2022-12-04T01:40:02;100343.16;;;11.49
67829;BMP280;54626;45.436;10.942;2022-12-04T01:42:30;100343.94;;;11.50
67829;BMP280;54626;45.436;10.942;2022-12-04T01:48:17;100335.41;;;11.48
67829;BMP280;54626;45.436;10.942;2022-12-04T01:50:45;100327.47;;;11.44
67829;BMP280;54626;45.436;10.942;2022-12-04T01:53:19;100325.44;;;11.45
67829;BMP280;54626;45.436;10.942;2022-12-04T01:55:48;100324.69;;;11.44
67829;BMP280;54626;45.436;10.942;2022-12-04T01:58:28;100315.28;;;11.47
67829;BMP280;54626;45.436;10.942;2022-12-04T02:01:03;100307.38;;;11.51
67829;BMP280;54626;45.436;10.942;2022-12-04T02:03:34;100306.25;;;11.54
67829;BMP280;54626;45.436;10.942;2022-12-04T02:06:01;100312.97;;;11.59
67829;BMP280;54626;45.436;10.942;2022-12-04T02:08:28;100310.72;;;11.57
67829;BMP280;54626;45.436;10.942;2022-12-04T02:20:22;100287.88;;;11.72
67829;BMP280;54626;45.436;10.942;2022-12-04T02:31:19;100281.09;;;11.88
67829;BMP280;54626;45.436;10.942;2022-12-04T02:33:57;100263.72;;;11.87
67829;BMP280;54626;45.436;10.942;2022-12-04T02:36:49;100270.19;;;11.90
67829;BMP280;54626;45.436;10.942;2022-12-04T02:39:34;100258.34;;;11.89
67829;BMP280;54626;45.436;10.942;2022-12-04T02:42:07;100259.09;;;11.90
67829;BMP280;54626;45.436;10.942;2022-12-04T02:44:44;100246.00;;;11.98
67829;BMP280;54626;45.436;10.942;2022-12-04T02:47:22;100243.75;;;11.96
67829;BMP280;54626;45.436;10.942;2022-12-04T02:50:00;100236.56;;;11.93
67829;BMP280;54626;45.436;10.942;2022-12-04T02:52:38;100235.44;;;11.96
67829;BMP280;54626;45.436;10.942;2022-12-04T02:55:16;100227.72;;;11.95
67829;BMP280;54626;45.436;10.942;2022-12-04T02:57:50;100217.56;;;12.05
67829;BMP280;54626;45.436;10.942;2022-12-04T03:00:18;100205.00;;;12.04
67829;BMP280;54626;45.436;10.942;2022-12-04T03:02:51;100201.69;;;12.13
67829;BMP280;54626;45.436;10.942;2022-12-04T03:05:23;100200.72;;;12.25
67829;BMP280;54626;45.436;10.942;2022-12-04T03:07:57;100195.56;;;12.29
67829;BMP280;54626;45.436;10.942;2022-12-04T03:10:32;100197.75;;;12.38
67829;BMP280;54626;45.436;10.942;2022-12-04T03:13:08;100194.44;;;12.39
67829;BMP280;54626;45.436;10.942;2022-12-04T03:15:52;100187.41;;;12.38
67829;BMP280;54626;45.436;10.942;2022-12-04T03:18:27;100189.44;;;12.38
67829;BMP280;54626;45.436;10.942;2022-12-04T03:21:00;100195.94;;;12.25
67829;BMP280;54626;45.436;10.942;2022-12-04T03:23:43;100177.44;;;12.35
67829;BMP280;54626;45.436;10.942;2022-12-04T03:26:29;100170.25;;;12.32
67829;BMP280;54626;45.436;10.942;2022-12-04T03:29:23;100158.97;;;12.30
67829;BMP280;54626;45.436;10.942;2022-12-04T03:35:01;100145.69;;;12.21
67829;BMP280;54626;45.436;10.942;2022-12-04T03:37:48;100144.00;;;12.26
67829;BMP280;54626;45.436;10.942;2022-12-04T03:40:24;100137.72;;;12.25
67829;BMP280;54626;45.436;10.942;2022-12-04T03:46:29;100143.25;;;12.25
67829;BMP280;54626;45.436;10.942;2022-12-04T03:51:40;100136.63;;;12.21
67829;BMP280;54626;45.436;10.942;2022-12-04T03:54:51;100138.63;;;12.28
67829;BMP280;54626;45.436;10.942;2022-12-04T03:57:09;100135.88;;;12.28
67829;BMP280;54626;45.436;10.942;2022-12-04T04:00:09;100137.72;;;12.25
67829;BMP280;54626;45.436;10.942;2022-12-04T04:02:36;100127.91;;;12.24
67829;BMP280;54626;45.436;10.942;2022-12-04T04:05:05;100124.63;;;12.18
67829;BMP280;54626;45.436;10.942;2022-12-04T04:07:42;100130.53;;;12.15
67829;BMP280;54626;45.436;10.942;2022-12-04T04:10:13;100125.34;;;12.12
67829;BMP280;54626;45.436;10.942;2022-12-04T04:12:49;100134.97;;;12.11
67829;BMP280;54626;45.436;10.942;2022-12-04T04:15:40;100132.38;;;12.13
67829;BMP280;54626;45.436;10.942;2022-12-04T04:18:29;100129.78;;;12.07
67829;BMP280;54626;45.436;10.942;2022-12-04T04:21:18;100128.50;;;12.08
67829;BMP280;54626;45.436;10.942;2022-12-04T04:24:06;100117.03;;;12.12
67829;BMP280;54626;45.436;10.942;2022-12-04T04:26:44;100110.94;;;12.13
67829;BMP280;54626;45.436;10.942;2022-12-04T04:29:12;100116.25;;;12.26
67829;BMP280;54626;45.436;10.942;2022-12-04T04:31:42;100118.31;;;12.25
67829;BMP280;54626;45.436;10.942;2022-12-04T04:37:09;100114.59;;;12.23
67829;BMP280;54626;45.436;10.942;2022-12-04T04:42:34;100121.28;;;12.20
67829;BMP280;54626;45.436;10.942;2022-12-04T04:45:07;100120.94;;;12.09
67829;BMP280;54626;45.436;10.942;2022-12-04T04:47:44;100121.28;;;12.05
67829;BMP280;54626;45.436;10.942;2022-12-04T04:50:13;100139.22;;;11.97
67829;BMP280;54626;45.436;10.942;2022-12-04T04:52:45;100144.19;;;11.98
67829;BMP280;54626;45.436;10.942;2022-12-04T04:55:13;100119.09;;;11.89
67829;BMP280;54626;45.436;10.942;2022-12-04T04:57:41;100122.59;;;11.82
67829;BMP280;54626;45.436;10.942;2022-12-04T05:00:17;100119.84;;;11.82
67829;BMP280;54626;45.436;10.942;2022-12-04T05:02:44;100122.41;;;11.72
67829;BMP280;54626;45.436;10.942;2022-12-04T05:05:18;100112.09;;;11.73
67829;BMP280;54626;45.436;10.942;2022-12-04T05:07:45;100113.38;;;11.72
67829;BMP280;54626;45.436;10.942;2022-12-04T05:10:12;100114.69;;;11.71
67829;BMP280;54626;45.436;10.942;2022-12-04T05:12:39;100116.50;;;11.61
67829;BMP280;54626;45.436;10.942;2022-12-04T05:15:06;100116.66;;;11.55
67829;BMP280;54626;45.436;10.942;2022-12-04T05:17:34;100121.28;;;11.53
67829;BMP280;54626;45.436;10.942;2022-12-04T05:20:02;100113.91;;;11.48
67829;BMP280;54626;45.436;10.942;2022-12-04T05:22:34;100122.03;;;11.46
67829;BMP280;54626;45.436;10.942;2022-12-04T05:25:02;100117.94;;;11.40
67829;BMP280;54626;45.436;10.942;2022-12-04T05:27:31;100115.00;;;11.30
67829;BMP280;54626;45.436;10.942;2022-12-04T05:29:58;100099.13;;;11.31
67829;BMP280;54626;45.436;10.942;2022-12-04T05:32:26;100088.41;;;11.27
67829;BMP280;54626;45.436;10.942;2022-12-04T05:34:53;100090.09;;;11.30
67829;BMP280;54626;45.436;10.942;2022-12-04T05:37:21;100076.41;;;11.25
67829;BMP280;54626;45.436;10.942;2022-12-04T05:39:49;100082.53;;;11.23
67829;BMP280;54626;45.436;10.942;2022-12-04T05:42:15;100092.28;;;11.32
67829;BMP280;54626;45.436;10.942;2022-12-04T05:44:42;100090.44;;;11.27
67829;BMP280;54626;45.436;10.942;2022-12-04T05:47:08;100089.69;;;11.26
67829;BMP280;54626;45.436;10.942;2022-12-04T05:49:51;100103.19;;;11.30
67829;BMP280;54626;45.436;10.942;2022-12-04T05:52:24;100103.53;;;11.34
67829;BMP280;54626;45.436;10.942;2022-12-04T05:54:50;100097.09;;;11.31
67829;BMP280;54626;45.436;10.942;2022-12-04T05:57:23;100089.16;;;11.28
67829;BMP280;54626;45.436;10.942;2022-12-04T05:59:54;100102.97;;;11.28
67829;BMP280;54626;45.436;10.942;2022-12-04T06:02:21;100102.06;;;11.25
67829;BMP280;54626;45.436;10.942;2022-12-04T06:04:48;100114.25;;;11.30
67829;BMP280;54626;45.436;10.942;2022-12-04T06:07:17;100123.44;;;11.25
67829;BMP280;54626;45.436;10.942;2022-12-04T06:09:44;100116.81;;;11.20
67829;BMP280;54626;45.436;10.942;2022-12-04T06:12:13;100107.44;;;11.23
67829;BMP280;54626;45.436;10.942;2022-12-04T06:14:39;100110.19;;;11.23
67829;BMP280;54626;45.436;10.942;2022-12-04T06:17:06;100109.59;;;11.25
67829;BMP280;54626;45.436;10.942;2022-12-04T06:19:32;100108.31;;;11.26
67829;BMP280;54626;45.436;10.942;2022-12-04T06:21:59;100114.06;;;11.20
67829;BMP280;54626;45.436;10.942;2022-12-04T06:24:25;100126.41;;;11.19
67829;BMP280;54626;45.436;10.942;2022-12-04T06:26:59;100122.72;;;11.24
67829;BMP280;54626;45.436;10.942;2022-12-04T06:29:45;100121.25;;;11.23
67829;BMP280;54626;45.436;10.942;2022-12-04T06:32:12;100138.75;;;11.26
67829;BMP280;54626;45.436;10.942;2022-12-04T06:34:49;100138.59;;;11.24
67829;BMP280;54626;45.436;10.942;2022-12-04T06:37:26;100134.50;;;11.17
67829;BMP280;54626;45.436;10.942;2022-12-04T06:40:01;100133.78;;;11.24
67829;BMP280;54626;45.436;10.942;2022-12-04T06:42:27;100144.84;;;11.24
67829;BMP280;54626;45.436;10.942;2022-12-04T06:44:54;100158.31;;;11.20
67829;BMP280;54626;45.436;10.942;2022-12-04T06:47:20;100164.03;;;11.15
67829;BMP280;54626;45.436;10.942;2022-12-04T06:49:50;100171.94;;;11.11
67829;BMP280;54626;45.436;10.942;2022-12-04T06:52:16;100177.66;;;11.05
67829;BMP280;54626;45.436;10.942;2022-12-04T06:54:43;100180.06;;;11.09
67829;BMP280;54626;45.436;10.942;2022-12-04T06:57:12;100179.63;;;10.97
67829;BMP280;54626;45.436;10.942;2022-12-04T06:59:38;100188.06;;;10.84
67829;BMP280;54626;45.436;10.942;2022-12-04T07:02:05;100198.97;;;10.62
67829;BMP280;54626;45.436;10.942;2022-12-04T07:04:31;100181.38;;;10.45
67829;BMP280;54626;45.436;10.942;2022-12-04T07:06:58;100176.13;;;10.34
67829;BMP280;54626;45.436;10.942;2022-12-04T07:09:24;100181.44;;;10.32
67829;BMP280;54626;45.436;10.942;2022-12-04T07:11:52;100171.09;;;10.25
67829;BMP280;54626;45.436;10.942;2022-12-04T07:14:20;100166.84;;;10.24
67829;BMP280;54626;45.436;10.942;2022-12-04T07:16:46;100171.41;;;10.21
67829;BMP280;54626;45.436;10.942;2022-12-04T07:19:13;100169.72;;;10.18
67829;BMP280;54626;45.436;10.942;2022-12-04T07:21:40;100182.75;;;10.31
67829;BMP280;54626;45.436;10.942;2022-12-04T07:24:14;100189.56;;;10.30
67829;BMP280;54626;45.436;10.942;2022-12-04T07:26:43;100203.16;;;10.28
67829;BMP280;54626;45.436;10.942;2022-12-04T07:29:10;100206.81;;;10.23
67829;BMP280;54626;45.436;10.942;2022-12-04T07:31:37;100212.16;;;10.08
67829;BMP280;54626;45.436;10.942;2022-12-04T07:34:06;100208.13;;;10.09
67829;BMP280;54626;45.436;10.942;2022-12-04T07:36:37;100208.59;;;10.00
67829;BMP280;54626;45.436;10.942;2022-12-04T07:39:04;100216.81;;;9.92
67829;BMP280;54626;45.436;10.942;2022-12-04T07:41:30;100210.16;;;9.88
67829;BMP280;54626;45.436;10.942;2022-12-04T07:44:00;100211.50;;;9.94
67829;BMP280;54626;45.436;10.942;2022-12-04T07:46:27;100204.63;;;9.88
67829;BMP280;54626;45.436;10.942;2022-12-04T07:48:55;100220.25;;;9.86
67829;BMP280;54626;45.436;10.942;2022-12-04T07:51:35;100212.25;;;9.95
67829;BMP280;54626;45.436;10.942;2022-12-04T07:54:02;100220.31;;;9.93
67829;BMP280;54626;45.436;10.942;2022-12-04T07:56:30;100213.72;;;9.96
67829;BMP280;54626;45.436;10.942;2022-12-04T07:58:57;100213.59;;;9.81
67829;BMP280;54626;45.436;10.942;2022-12-04T08:01:28;100210.69;;;9.87
67829;BMP280;54626;45.436;10.942;2022-12-04T08:03:57;100212.41;;;9.89
67829;BMP280;54626;45.436;10.942;2022-12-04T08:06:25;100221.00;;;9.86
67829;BMP280;54626;45.436;10.942;2022-12-04T08:08:58;100228.66;;;9.80
67829;BMP280;54626;45.436;10.942;2022-12-04T08:11:30;100223.38;;;9.69
67829;BMP280;54626;45.436;10.942;2022-12-04T08:14:01;100228.19;;;9.69
67829;BMP280;54626;45.436;10.942;2022-12-04T08:16:30;100219.44;;;9.78
67829;BMP280;54626;45.436;10.942;2022-12-04T08:18:57;100226.09;;;9.82
67829;BMP280;54626;45.436;10.942;2022-12-04T08:21:27;100231.97;;;9.79
67829;BMP280;54626;45.436;10.942;2022-12-04T08:23:55;100235.25;;;9.77
67829;BMP280;54626;45.436;10.942;2022-12-04T08:26:23;100264.03;;;9.82
67829;BMP280;54626;45.436;10.942;2022-12-04T08:28:54;100263.47;;;9.83
67829;BMP280;54626;45.436;10.942;2022-12-04T08:31:24;100263.16;;;9.87
67829;BMP280;54626;45.436;10.942;2022-12-04T08:33:54;100270.94;;;9.75
67829;BMP280;54626;45.436;10.942;2022-12-04T08:36:20;100270.31;;;9.69
67829;BMP280;54626;45.436;10.942;2022-12-04T08:38:48;100260.44;;;9.74
67829;BMP280;54626;45.436;10.942;2022-12-04T08:41:19;100265.78;;;9.72
67829;BMP280;54626;45.436;10.942;2022-12-04T08:43:50;100268.09;;;9.81
67829;BMP280;54626;45.436;10.942;2022-12-04T08:46:19;100263.53;;;9.70
67829;BMP280;54626;45.436;10.942;2022-12-04T08:48:45;100269.25;;;9.72
67829;BMP280;54626;45.436;10.942;2022-12-04T08:51:15;100270.88;;;9.68
67829;BMP280;54626;45.436;10.942;2022-12-04T08:53:42;100287.09;;;9.71
67829;BMP280;54626;45.436;10.942;2022-12-04T08:56:09;100282.75;;;9.76
67829;BMP280;54626;45.436;10.942;2022-12-04T08:58:39;100299.47;;;9.90
67829;BMP280;54626;45.436;10.942;2022-12-04T09:01:07;100292.94;;;10.01
67829;BMP280;54626;45.436;10.942;2022-12-04T09:03:35;100302.94;;;10.04
67829;BMP280;54626;45.436;10.942;2022-12-04T09:06:03;100304.22;;;10.03
67829;BMP280;54626;45.436;10.942;2022-12-04T09:08:31;100302.81;;;10.09
67829;BMP280;54626;45.436;10.942;2022-12-04T09:11:08;100318.84;;;10.11
67829;BMP280;54626;45.436;10.942;2022-12-04T09:13:35;100322.56;;;10.13
67829;BMP280;54626;45.436;10.942;2022-12-04T09:16:04;100323.44;;;10.08
67829;BMP280;54626;45.436;10.942;2022-12-04T09:18:33;100332.66;;;10.11
67829;BMP280;54626;45.436;10.942;2022-12-04T09:21:03;100327.13;;;10.11
67829;BMP280;54626;45.436;10.942;2022-12-04T09:23:30;100334.75;;;10.18
67829;BMP280;54626;45.436;10.942;2022-12-04T09:25:58;100338.06;;;10.16
67829;BMP280;54626;45.436;10.942;2022-12-04T09:28:24;100340.63;;;10.14
67829;BMP280;54626;45.436;10.942;2022-12-04T09:31:02;100331.59;;;10.14
67829;BMP280;54626;45.436;10.942;2022-12-04T09:33:30;100327.72;;;10.17
67829;BMP280;54626;45.436;10.942;2022-12-04T09:36:01;100337.59;;;10.25
67829;BMP280;54626;45.436;10.942;2022-12-04T09:38:28;100339.69;;;10.32
67829;BMP280;54626;45.436;10.942;2022-12-04T09:41:14;100351.13;;;10.29
67829;BMP280;54626;45.436;10.942;2022-12-04T09:43:59;100341.84;;;10.26
67829;BMP280;54626;45.436;10.942;2022-12-04T09:46:34;100333.03;;;10.15
67829;BMP280;54626;45.436;10.942;2022-12-04T09:49:13;100338.22;;;10.31
67829;BMP280;54626;45.436;10.942;2022-12-04T09:51:41;100348.28;;;10.42
67829;BMP280;54626;45.436;10.942;2022-12-04T09:54:19;100352.75;;;10.45
67829;BMP280;54626;45.436;10.942;2022-12-04T09:56:54;100361.88;;;10.40
67829;BMP280;54626;45.436;10.942;2022-12-04T09:59:26;100354.59;;;10.29
67829;BMP280;54626;45.436;10.942;2022-12-04T10:02:02;100344.31;;;10.17
67829;BMP280;54626;45.436;10.942;2022-12-04T10:04:29;100339.97;;;10.21
67829;BMP280;54626;45.436;10.942;2022-12-04T10:07:12;100351.31;;;10.31
67829;BMP280;54626;45.436;10.942;2022-12-04T10:12:46;100366.50;;;10.24
67829;BMP280;54626;45.436;10.942;2022-12-04T10:26:36;100375.38;;;10.23
67829;BMP280;54626;45.436;10.942;2022-12-04T10:29:14;100367.19;;;10.17
67829;BMP280;54626;45.436;10.942;2022-12-04T10:31:43;100368.13;;;10.07
67829;BMP280;54626;45.436;10.942;2022-12-04T10:34:19;100369.31;;;10.11
67829;BMP280;54626;45.436;10.942;2022-12-04T10:36:52;100360.44;;;10.05
67829;BMP280;54626;45.436;10.942;2022-12-04T10:39:28;100369.63;;;10.08
67829;BMP280;54626;45.436;10.942;2022-12-04T10:42:00;100368.34;;;10.09
67829;BMP280;54626;45.436;10.942;2022-12-04T11:02:28;100371.47;;;10.05
67829;BMP280;54626;45.436;10.942;2022-12-04T11:04:58;100363.28;;;10.00
67829;BMP280;54626;45.436;10.942;2022-12-04T11:07:27;100370.28;;;10.01
67829;BMP280;54626;45.436;10.942;2022-12-04T11:10:02;100372.19;;;10.06
67829;BMP280;54626;45.436;10.942;2022-12-04T11:12:30;100367.94;;;10.05
67829;BMP280;54626;45.436;10.942;2022-12-04T11:17:32;100378.00;;;10.15
67829;BMP280;54626;45.436;10.942;2022-12-04T11:20:05;100386.44;;;10.23
67829;BMP280;54626;45.436;10.942;2022-12-04T11:22:35;100386.63;;;10.25
67829;BMP280;54626;45.436;10.942;2022-12-04T11:25:03;100396.38;;;10.26
67829;BMP280;54626;45.436;10.942;2022-12-04T11:27:36;100393.84;;;10.28
67829;BMP280;54626;45.436;10.942;2022-12-04T11:30:17;100395.63;;;10.25
67829;BMP280;54626;45.436;10.942;2022-12-04T11:32:45;100399.59;;;10.30
67829;BMP280;54626;45.436;10.942;2022-12-04T11:35:13;100395.53;;;10.31
67829;BMP280;54626;45.436;10.942;2022-12-04T11:37:51;100392.88;;;10.25
67829;BMP280;54626;45.436;10.942;2022-12-04T11:40:19;100400.75;;;10.21
67829;BMP280;54626;45.436;10.942;2022-12-04T11:43:13;100405.63;;;10.28
67829;BMP280;54626;45.436;10.942;2022-12-04T11:45:41;100396.38;;;10.26
67829;BMP280;54626;45.436;10.942;2022-12-04T11:48:16;100391.47;;;10.32
67829;BMP280;54626;45.436;10.942;2022-12-04T11:51:09;100388.38;;;10.35
67829;BMP280;54626;45.436;10.942;2022-12-04T11:53:47;100380.47;;;10.39
67829;BMP280;54626;45.436;10.942;2022-12-04T11:56:28;100383.22;;;10.52
67829;BMP280;54626;45.436;10.942;2022-12-04T12:10:08;100398.19;;;10.57
67829;BMP280;54626;45.436;10.942;2022-12-04T12:15:20;100405.47;;;10.67
67829;BMP280;54626;45.436;10.942;2022-12-04T12:18:12;100404.94;;;10.68
67829;BMP280;54626;45.436;10.942;2022-12-04T12:23:52;100410.75;;;10.78
67829;BMP280;54626;45.436;10.942;2022-12-04T12:26:54;100416.84;;;10.76
67829;BMP280;54626;45.436;10.942;2022-12-04T12:29:30;100412.38;;;10.73
67829;BMP280;54626;45.436;10.942;2022-12-04T12:32:09;100412.78;;;10.77
67829;BMP280;54626;45.436;10.942;2022-12-04T12:34:39;100413.25;;;10.68
67829;BMP280;54626;45.436;10.942;2022-12-04T12:37:20;100429.63;;;10.67
67829;BMP280;54626;45.436;10.942;2022-12-04T12:42:33;100432.59;;;10.68
67829;BMP280;54626;45.436;10.942;2022-12-04T12:45:39;100427.94;;;10.64
67829;BMP280;54626;45.436;10.942;2022-12-04T12:50:56;100433.53;;;10.51
67829;BMP280;54626;45.436;10.942;2022-12-04T12:53:46;100429.88;;;10.56
67829;BMP280;54626;45.436;10.942;2022-12-04T12:56:28;100425.38;;;10.66
67829;BMP280;54626;45.436;10.942;2022-12-04T12:58:59;100417.22;;;10.60
67829;BMP280;54626;45.436;10.942;2022-12-04T13:01:41;100424.53;;;10.70
67829;BMP280;54626;45.436;10.942;2022-12-04T13:04:17;100437.72;;;10.65
67829;BMP280;54626;45.436;10.942;2022-12-04T13:06:50;100447.72;;;10.68
67829;BMP280;54626;45.436;10.942;2022-12-04T13:09:24;100438.59;;;10.60
67829;BMP280;54626;45.436;10.942;2022-12-04T13:11:57;100438.72;;;10.54
67829;BMP280;54626;45.436;10.942;2022-12-04T13:14:37;100458.34;;;10.64
67829;BMP280;54626;45.436;10.942;2022-12-04T13:17:29;100453.25;;;10.68
67829;BMP280;54626;45.436;10.942;2022-12-04T13:19:57;100460.56;;;10.65
67829;BMP280;54626;45.436;10.942;2022-12-04T13:38:24;100460.72;;;10.80
67829;BMP280;54626;45.436;10.942;2022-12-04T13:40:59;100469.78;;;10.80
67829;BMP280;54626;45.436;10.942;2022-12-04T13:43:33;100479.00;;;10.83
67829;BMP280;54626;45.436;10.942;2022-12-04T13:46:04;100473.34;;;10.88
67829;BMP280;54626;45.436;10.942;2022-12-04T13:48:40;100480.16;;;10.87
67829;BMP280;54626;45.436;10.942;2022-12-04T13:53:44;100493.09;;;10.72
67829;BMP280;54626;45.436;10.942;2022-12-04T13:56:28;100488.91;;;10.78
67829;BMP280;54626;45.436;10.942;2022-12-04T13:59:19;100494.34;;;10.84
67829;BMP280;54626;45.436;10.942;2022-12-04T14:01:48;100490.84;;;10.83
67829;BMP280;54626;45.436;10.942;2022-12-04T14:04:28;100493.91;;;10.80
67829;BMP280;54626;45.436;10.942;2022-12-04T14:06:57;100498.16;;;10.81
67829;BMP280;54626;45.436;10.942;2022-12-04T14:09:30;100495.94;;;10.79
67829;BMP280;54626;45.436;10.942;2022-12-04T14:12:05;100495.34;;;10.73
67829;BMP280;54626;45.436;10.942;2022-12-04T14:15:07;100492.78;;;10.75
67829;BMP280;54626;45.436;10.942;2022-12-04T14:17:55;100508.28;;;10.78
67829;BMP280;54626;45.436;10.942;2022-12-04T14:20:27;100519.16;;;10.76
67829;BMP280;54626;45.436;10.942;2022-12-04T14:23:07;100517.25;;;10.71
67829;BMP280;54626;45.436;10.942;2022-12-04T14:25:37;100520.44;;;10.75
67829;BMP280;54626;45.436;10.942;2022-12-04T14:28:22;100519.25;;;10.71
67829;BMP280;54626;45.436;10.942;2022-12-04T14:33:38;100532.56;;;10.72
67829;BMP280;54626;45.436;10.942;2022-12-04T14:36:39;100544.91;;;10.71
67829;BMP280;54626;45.436;10.942;2022-12-04T14:39:30;100539.91;;;10.70
67829;BMP280;54626;45.436;10.942;2022-12-04T14:42:11;100546.84;;;10.64
67829;BMP280;54626;45.436;10.942;2022-12-04T14:44:39;100559.63;;;10.54
67829;BMP280;54626;45.436;10.942;2022-12-04T14:47:37;100563.78;;;10.47
67829;BMP280;54626;45.436;10.942;2022-12-04T14:56:19;100558.75;;;10.59
67829;BMP280;54626;45.436;10.942;2022-12-04T14:58:49;100555.13;;;10.64
67829;BMP280;54626;45.436;10.942;2022-12-04T15:01:27;100556.44;;;10.63
67829;BMP280;54626;45.436;10.942;2022-12-04T15:04:06;100553.44;;;10.61
67829;BMP280;54626;45.436;10.942;2022-12-04T15:06:37;100561.75;;;10.61
67829;BMP280;54626;45.436;10.942;2022-12-04T15:09:14;100552.25;;;10.56
67829;BMP280;54626;45.436;10.942;2022-12-04T15:12:13;100558.75;;;10.59
67829;BMP280;54626;45.436;10.942;2022-12-04T15:15:15;100564.28;;;10.59
67829;BMP280;54626;45.436;10.942;2022-12-04T15:18:03;100566.31;;;10.58
67829;BMP280;54626;45.436;10.942;2022-12-04T15:20:57;100574.59;;;10.58
67829;BMP280;54626;45.436;10.942;2022-12-04T15:23:34;100556.28;;;10.55
67829;BMP280;54626;45.436;10.942;2022-12-04T15:26:16;100561.63;;;10.53
67829;BMP280;54626;45.436;10.942;2022-12-04T15:28:54;100573.09;;;10.57
67829;BMP280;54626;45.436;10.942;2022-12-04T15:31:30;100573.66;;;10.56
67829;BMP280;54626;45.436;10.942;2022-12-04T15:34:00;100577.72;;;10.55
67829;BMP280;54626;45.436;10.942;2022-12-04T15:36:47;100579.41;;;10.58
67829;BMP280;54626;45.436;10.942;2022-12-04T15:39:20;100585.78;;;10.53
67829;BMP280;54626;45.436;10.942;2022-12-04T15:41:48;100588.22;;;10.56
67829;BMP280;54626;45.436;10.942;2022-12-04T15:44:29;100598.75;;;10.58
67829;BMP280;54626;45.436;10.942;2022-12-04T15:46:57;100599.63;;;10.53
67829;BMP280;54626;45.436;10.942;2022-12-04T15:49:30;100606.06;;;10.55
67829;BMP280;54626;45.436;10.942;2022-12-04T15:52:23;100609.69;;;10.50
67829;BMP280;54626;45.436;10.942;2022-12-04T15:54:54;100606.63;;;10.54
67829;BMP280;54626;45.436;10.942;2022-12-04T15:57:31;100617.03;;;10.48
67829;BMP280;54626;45.436;10.942;2022-12-04T16:00:00;100619.06;;;10.47
67829;BMP280;54626;45.436;10.942;2022-12-04T16:02:32;100624.78;;;10.49
67829;BMP280;54626;45.436;10.942;2022-12-04T16:05:33;100630.31;;;10.49
67829;BMP280;54626;45.436;10.942;2022-12-04T16:08:22;100622.56;;;10.48
67829;BMP280;54626;45.436;10.942;2022-12-04T16:10:57;100628.09;;;10.48
67829;BMP280;54626;45.436;10.942;2022-12-04T16:13:31;100630.88;;;10.48
67829;BMP280;54626;45.436;10.942;2022-12-04T16:15:58;100627.38;;;10.47
67829;BMP280;54626;45.436;10.942;2022-12-04T16:18:26;100633.94;;;10.44
67829;BMP280;54626;45.436;10.942;2022-12-04T16:21:02;100653.53;;;10.46